createdAt,value
2017-06-21T00:01:36.127Z,8.57
2017-06-21T00:04:04.399Z,8.07
2017-06-21T00:06:32.867Z,8.23
2017-06-21T00:09:01.205Z,8.67
2017-06-21T00:11:30.345Z,8.00
2017-06-21T00:13:59.060Z,8.93
2017-06-21T00:16:27.342Z,8.30
2017-06-21T00:18:55.674Z,9.07
2017-06-21T00:21:24.021Z,9.07
2017-06-21T00:23:52.475Z,8.30
2017-06-21T00:26:20.867Z,8.50
2017-06-21T00:28:49.877Z,8.40
2017-06-21T00:31:18.137Z,8.27
2017-06-21T00:33:47.172Z,8.40
2017-06-21T00:36:15.431Z,8.93
2017-06-21T00:38:43.864Z,8.33
2017-06-21T00:41:12.191Z,8.93
2017-06-21T00:43:40.512Z,8.60
2017-06-21T00:46:08.997Z,9.03
2017-06-21T00:48:37.210Z,9.10
2017-06-21T00:51:05.699Z,8.70
2017-06-21T00:53:34.040Z,9.13
2017-06-21T00:56:02.328Z,9.00
2017-06-21T00:58:31.441Z,8.03
2017-06-21T01:00:59.727Z,8.37
2017-06-21T01:03:27.981Z,8.07
2017-06-21T01:05:56.253Z,8.53
2017-06-21T01:08:24.570Z,8.07
2017-06-21T01:10:52.840Z,8.70
2017-06-21T01:13:21.134Z,7.80
2017-06-21T01:15:49.680Z,8.83
2017-06-21T01:18:18.001Z,8.20
2017-06-21T01:20:46.532Z,8.30
2017-06-21T01:23:15.705Z,8.87
2017-06-21T01:25:44.814Z,8.27
2017-06-21T01:28:13.117Z,8.27
2017-06-21T01:30:41.355Z,9.07
2017-06-21T01:33:10.533Z,7.50
2017-06-21T01:35:38.813Z,7.60
2017-06-21T01:38:07.188Z,8.03
2017-06-21T01:40:35.639Z,8.53
2017-06-21T01:43:03.956Z,7.63
2017-06-21T01:45:32.181Z,8.10
2017-06-21T01:48:00.652Z,8.70
2017-06-21T01:50:29.249Z,7.90
2017-06-21T01:52:57.502Z,8.33
2017-06-21T01:55:25.822Z,8.60
2017-06-21T01:57:54.906Z,8.60
2017-06-21T02:00:23.260Z,7.93
2017-06-21T02:02:51.607Z,7.93
2017-06-21T02:05:20.616Z,7.90
2017-06-21T02:07:48.875Z,8.10
2017-06-21T02:10:18.045Z,7.90
2017-06-21T02:12:46.299Z,7.87
2017-06-21T02:15:14.546Z,7.73
2017-06-21T02:17:42.852Z,8.63
2017-06-21T02:20:11.313Z,7.90
2017-06-21T02:22:39.570Z,7.60
2017-06-21T02:25:07.990Z,7.20
2017-06-21T02:27:36.416Z,8.10
2017-06-21T02:30:04.978Z,7.53
2017-06-21T02:32:34.176Z,7.33
2017-06-21T02:35:03.331Z,7.73
2017-06-21T02:37:31.578Z,7.63
2017-06-21T02:39:59.846Z,6.93
2017-06-21T02:42:28.105Z,7.47
2017-06-21T02:44:56.533Z,7.77
2017-06-21T02:47:24.864Z,7.73
2017-06-21T02:49:53.301Z,8.17
2017-06-21T02:52:21.629Z,7.50
2017-06-21T02:54:49.943Z,7.00
2017-06-21T02:57:18.252Z,6.50
2017-06-21T02:59:46.572Z,6.60
2017-06-21T03:02:14.831Z,6.77
2017-06-21T03:04:43.098Z,7.20
2017-06-21T03:07:11.402Z,6.67
2017-06-21T03:09:39.689Z,7.33
2017-06-21T03:12:07.958Z,6.70
2017-06-21T03:14:36.502Z,7.00
2017-06-21T03:17:04.975Z,7.37
2017-06-21T03:19:33.203Z,7.07
2017-06-21T03:22:01.511Z,6.70
2017-06-21T03:24:30.054Z,6.90
2017-06-21T03:26:58.334Z,7.00
2017-06-21T03:29:26.689Z,6.07
2017-06-21T03:31:55.164Z,6.43
2017-06-21T03:34:23.665Z,6.87
2017-06-21T03:36:52.040Z,6.20
2017-06-21T03:39:20.322Z,7.20
2017-06-21T03:41:48.772Z,7.13
2017-06-21T03:44:17.045Z,7.33
2017-06-21T03:46:45.414Z,6.87
2017-06-21T03:49:14.819Z,6.90
2017-06-21T03:51:43.074Z,7.07
2017-06-21T03:54:11.316Z,8.33
2017-06-21T03:56:39.693Z,7.33
2017-06-21T03:59:07.935Z,6.73
2017-06-21T04:01:36.521Z,7.17
2017-06-21T04:04:04.859Z,7.33
2017-06-21T04:06:33.166Z,6.90
2017-06-21T04:09:02.222Z,7.17
2017-06-21T04:11:30.462Z,6.93
2017-06-21T04:13:58.795Z,7.87
2017-06-21T04:16:27.956Z,6.87
2017-06-21T04:18:56.660Z,7.23
2017-06-21T04:21:24.921Z,7.60
2017-06-21T04:23:54.070Z,7.60
2017-06-21T04:26:22.383Z,6.80
2017-06-21T04:28:50.706Z,7.07
2017-06-21T04:31:19.082Z,6.33
2017-06-21T04:33:47.353Z,6.73
2017-06-21T04:36:16.386Z,7.10
2017-06-21T04:38:44.809Z,6.30
2017-06-21T04:41:13.055Z,7.23
2017-06-21T04:43:41.294Z,6.40
2017-06-21T04:46:09.603Z,6.70
2017-06-21T04:48:38.122Z,7.17
2017-06-21T04:51:06.457Z,6.60
2017-06-21T04:53:34.793Z,6.77
2017-06-21T04:56:03.189Z,6.43
2017-06-21T04:58:31.494Z,6.47
2017-06-21T05:00:59.840Z,6.50
2017-06-21T05:03:28.293Z,6.67
2017-06-21T05:05:56.732Z,6.30
2017-06-21T05:08:25.068Z,6.50
2017-06-21T05:10:53.637Z,6.73
2017-06-21T05:13:22.019Z,6.17
2017-06-21T05:15:51.024Z,6.37
2017-06-21T05:18:19.354Z,5.90
2017-06-21T05:20:47.612Z,6.37
2017-06-21T05:23:15.891Z,6.43
2017-06-21T05:25:44.186Z,5.83
2017-06-21T05:28:12.522Z,6.30
2017-06-21T05:30:40.816Z,5.37
2017-06-21T05:33:09.095Z,6.03
2017-06-21T05:35:37.685Z,5.70
2017-06-21T05:38:06.005Z,5.93
2017-06-21T05:40:34.231Z,5.33
2017-06-21T05:43:02.509Z,5.30
2017-06-21T05:45:30.820Z,5.30
2017-06-21T05:47:59.884Z,5.30
2017-06-21T05:50:28.318Z,6.10
2017-06-21T05:52:57.452Z,6.27
2017-06-21T05:55:25.745Z,4.93
2017-06-21T05:57:54.001Z,5.33
2017-06-21T06:00:22.337Z,6.20
2017-06-21T06:02:51.541Z,5.80
2017-06-21T06:05:19.818Z,5.40
2017-06-21T06:07:48.197Z,4.90
2017-06-21T06:10:16.470Z,4.60
2017-06-21T06:12:44.768Z,6.10
2017-06-21T06:15:13.075Z,5.30
2017-06-21T06:17:42.153Z,5.70
2017-06-21T06:20:10.446Z,5.50
2017-06-21T06:22:39.033Z,5.40
2017-06-21T06:25:07.410Z,6.33
2017-06-21T06:27:35.685Z,5.50
2017-06-21T06:30:04.175Z,5.40
2017-06-21T06:32:32.574Z,5.10
2017-06-21T06:35:01.624Z,5.40
2017-06-21T06:37:30.043Z,5.63
2017-06-21T06:39:59.122Z,5.07
2017-06-21T06:42:27.459Z,4.73
2017-06-21T06:44:55.738Z,5.63
2017-06-21T06:47:24.269Z,5.27
2017-06-21T06:49:52.520Z,6.17
2017-06-21T06:52:20.866Z,5.50
2017-06-21T06:54:49.237Z,5.60
2017-06-21T06:57:17.501Z,5.70
2017-06-21T06:59:46.060Z,6.07
2017-06-21T07:02:14.311Z,5.73
2017-06-21T07:04:42.665Z,6.00
2017-06-21T07:07:10.964Z,5.23
2017-06-21T07:09:39.305Z,5.27
2017-06-21T07:12:07.821Z,5.57
2017-06-21T07:14:36.387Z,5.30
2017-06-21T07:17:04.759Z,5.73
2017-06-21T07:19:33.272Z,5.27
2017-06-21T07:22:01.489Z,6.17
2017-06-21T07:24:29.801Z,5.80
2017-06-21T07:26:58.130Z,5.37
2017-06-21T07:29:26.496Z,4.80
2017-06-21T07:31:54.797Z,5.23
2017-06-21T07:34:23.078Z,5.03
2017-06-21T07:36:51.437Z,5.90
2017-06-21T07:39:19.882Z,6.30
2017-06-21T07:41:48.385Z,6.20
2017-06-21T07:44:17.629Z,6.00
2017-06-21T07:46:45.956Z,5.53
2017-06-21T07:49:15.001Z,5.60
2017-06-21T07:51:43.272Z,5.70
2017-06-21T07:54:11.739Z,5.30
2017-06-21T07:56:39.961Z,6.13
2017-06-21T07:59:08.276Z,5.40
2017-06-21T08:01:36.529Z,5.13
2017-06-21T08:04:05.843Z,6.90
2017-06-21T08:06:34.201Z,6.13
2017-06-21T08:09:02.675Z,5.47
2017-06-21T08:11:31.808Z,5.53
2017-06-21T08:14:00.068Z,5.50
2017-06-21T08:16:28.576Z,5.53
2017-06-21T08:18:57.034Z,5.63
2017-06-21T08:21:25.390Z,5.87
2017-06-21T08:23:53.724Z,5.80
2017-06-21T08:26:21.993Z,6.17
2017-06-21T08:28:50.459Z,6.43
2017-06-21T08:31:18.789Z,6.03
2017-06-21T08:33:47.875Z,5.50
2017-06-21T08:36:16.198Z,6.50
2017-06-21T08:38:44.824Z,6.70
2017-06-21T08:41:13.157Z,5.67
2017-06-21T08:43:41.513Z,5.80
2017-06-21T08:46:09.882Z,5.23
2017-06-21T08:48:38.215Z,6.00
2017-06-21T08:51:06.575Z,5.17
2017-06-21T08:53:35.093Z,5.77
2017-06-21T08:56:04.223Z,6.37
2017-06-21T08:58:32.553Z,5.40
2017-06-21T09:01:00.910Z,5.90
2017-06-21T09:03:29.207Z,5.87
2017-06-21T09:05:57.439Z,5.90
2017-06-21T09:08:25.845Z,6.47
2017-06-21T09:10:54.073Z,6.60
2017-06-21T09:13:23.217Z,5.90
2017-06-21T09:15:51.537Z,5.90
2017-06-21T09:18:19.832Z,6.00
2017-06-21T09:20:48.061Z,6.83
2017-06-21T09:23:16.313Z,6.57
2017-06-21T09:25:44.585Z,6.90
2017-06-21T09:28:12.847Z,6.30
2017-06-21T09:30:41.084Z,6.83
2017-06-21T09:33:10.116Z,6.27
2017-06-21T09:35:38.550Z,6.53
2017-06-21T09:38:06.886Z,6.30
2017-06-21T09:40:35.157Z,6.70
2017-06-21T09:43:03.504Z,7.47
2017-06-21T09:45:31.768Z,6.30
2017-06-21T09:48:00.853Z,6.13
2017-06-21T09:50:29.182Z,8.00
2017-06-21T09:52:57.460Z,6.90
2017-06-21T09:55:26.049Z,7.00
2017-06-21T09:57:54.314Z,6.80
2017-06-21T10:00:22.740Z,6.53
2017-06-21T10:02:50.951Z,6.73
2017-06-21T10:05:19.199Z,6.10
2017-06-21T10:07:48.201Z,6.77
2017-06-21T10:10:17.223Z,7.00
2017-06-21T10:12:45.513Z,6.53
2017-06-21T10:15:13.765Z,6.27
2017-06-21T10:17:42.084Z,6.67
2017-06-21T10:20:10.429Z,5.70
2017-06-21T10:22:38.698Z,6.17
2017-06-21T10:25:07.053Z,6.73
2017-06-21T10:27:36.090Z,6.20
2017-06-21T10:30:04.490Z,5.97
2017-06-21T10:32:32.725Z,5.53
2017-06-21T10:35:00.970Z,5.43
2017-06-21T10:37:29.976Z,5.80
2017-06-21T10:39:58.277Z,5.43
2017-06-21T10:42:26.505Z,5.77
2017-06-21T10:44:55.589Z,5.70
2017-06-21T10:47:23.917Z,5.70
2017-06-21T10:49:52.149Z,4.50
2017-06-21T10:52:21.206Z,4.87
2017-06-21T10:54:49.420Z,5.30
2017-06-21T10:57:18.504Z,5.80
2017-06-21T10:59:47.506Z,6.20
2017-06-21T11:02:16.574Z,5.30
2017-06-21T11:04:44.816Z,4.77
2017-06-21T11:07:13.111Z,5.20
2017-06-21T11:09:41.430Z,4.50
2017-06-21T11:12:10.561Z,4.80
2017-06-21T11:14:38.793Z,5.00
2017-06-21T11:17:07.856Z,4.60
2017-06-21T11:19:36.100Z,5.63
2017-06-21T11:22:04.409Z,5.27
2017-06-21T11:24:32.645Z,4.70
2017-06-21T11:27:00.979Z,4.60
2017-06-21T11:29:29.313Z,4.23
2017-06-21T11:31:57.580Z,4.60
2017-06-21T11:34:25.830Z,4.17
2017-06-21T11:36:54.837Z,4.50
2017-06-21T11:39:23.070Z,4.77
2017-06-21T11:41:51.320Z,4.53
2017-06-21T11:44:19.611Z,4.57
2017-06-21T11:46:48.174Z,4.57
2017-06-21T11:49:16.414Z,4.80
2017-06-21T11:51:44.714Z,4.30
2017-06-21T11:54:12.957Z,5.10
2017-06-21T11:56:41.200Z,5.00
2017-06-21T11:59:09.459Z,4.50
2017-06-21T12:01:37.688Z,4.53
2017-06-21T12:04:05.937Z,4.90
2017-06-21T12:06:35.029Z,5.10
2017-06-21T12:09:03.352Z,5.67
2017-06-21T12:11:31.611Z,4.93
2017-06-21T12:14:00.701Z,5.10
2017-06-21T12:16:28.941Z,5.13
2017-06-21T12:18:57.187Z,5.70
2017-06-21T12:21:25.428Z,5.23
2017-06-21T12:23:53.672Z,5.10
2017-06-21T12:26:22.028Z,5.30
2017-06-21T12:28:50.383Z,5.20
2017-06-21T12:31:19.115Z,5.50
2017-06-21T12:33:47.888Z,6.57
2017-06-21T12:36:16.788Z,5.20
2017-06-21T12:38:46.717Z,5.70
2017-06-21T12:41:16.532Z,5.00
2017-06-21T12:43:45.408Z,5.67
2017-06-21T12:46:14.292Z,5.37
2017-06-21T12:48:43.545Z,4.90
2017-06-21T12:51:11.878Z,5.40
2017-06-21T12:53:40.897Z,4.87
2017-06-21T12:56:09.147Z,4.83
2017-06-21T12:58:37.413Z,5.00
2017-06-21T13:01:05.700Z,5.40
2017-06-21T13:03:34.014Z,5.00
2017-06-21T13:06:02.262Z,5.37
2017-06-21T13:08:30.497Z,5.47
2017-06-21T13:10:58.749Z,4.83
2017-06-21T13:13:26.989Z,5.70
2017-06-21T13:15:55.395Z,4.60
2017-06-21T13:18:23.630Z,4.67
2017-06-21T13:20:52.782Z,4.90
2017-06-21T13:23:21.041Z,4.93
2017-06-21T13:25:49.315Z,4.13
2017-06-21T13:28:17.554Z,4.90
2017-06-21T13:30:46.598Z,5.70
2017-06-21T13:33:14.870Z,5.53
2017-06-21T13:35:43.117Z,5.40
2017-06-21T13:38:11.361Z,5.87
2017-06-21T13:40:40.424Z,5.33
2017-06-21T13:43:08.640Z,5.80
2017-06-21T13:45:37.660Z,5.63
2017-06-21T13:48:05.968Z,4.97
2017-06-21T13:50:34.330Z,6.30
2017-06-21T13:53:02.645Z,5.00
2017-06-21T13:55:30.976Z,5.83
2017-06-21T13:57:59.212Z,4.83
2017-06-21T14:00:28.250Z,4.90
2017-06-21T14:02:56.485Z,5.30
2017-06-21T14:05:24.731Z,6.20
2017-06-21T14:07:52.982Z,6.03
2017-06-21T14:10:21.222Z,5.30
2017-06-21T14:12:49.626Z,5.27
2017-06-21T14:15:18.153Z,5.80
2017-06-21T14:17:46.652Z,6.33
2017-06-21T14:20:14.896Z,6.10
2017-06-21T14:22:43.175Z,6.40
2017-06-21T14:25:11.416Z,6.30
2017-06-21T14:27:39.800Z,6.00
2017-06-21T14:30:08.036Z,5.70
2017-06-21T14:32:36.533Z,5.40
2017-06-21T14:35:04.893Z,7.03
2017-06-21T14:37:33.247Z,6.40
2017-06-21T14:40:02.714Z,6.40
2017-06-21T14:42:31.221Z,5.80
2017-06-21T14:44:59.480Z,5.47
2017-06-21T14:47:27.832Z,6.67
2017-06-21T14:49:56.104Z,5.93
2017-06-21T14:52:24.361Z,6.40
2017-06-21T14:54:52.601Z,5.70
2017-06-21T14:57:20.848Z,6.53
2017-06-21T14:59:49.084Z,6.20
2017-06-21T15:02:17.345Z,6.73
2017-06-21T15:04:46.377Z,5.77
2017-06-21T15:07:14.818Z,5.47
2017-06-21T15:09:43.834Z,6.20
2017-06-21T15:12:12.126Z,6.20
2017-06-21T15:14:40.895Z,5.97
2017-06-21T15:17:09.195Z,5.93
2017-06-21T15:19:37.462Z,6.40
2017-06-21T15:22:05.771Z,6.73
2017-06-21T15:24:34.016Z,5.70
2017-06-21T15:27:02.260Z,6.70
2017-06-21T15:29:30.552Z,5.83
2017-06-21T15:31:58.801Z,5.83
2017-06-21T15:34:27.818Z,5.33
2017-06-21T15:36:56.352Z,5.07
2017-06-21T15:39:25.710Z,5.40
2017-06-21T15:41:53.956Z,5.37
2017-06-21T15:44:22.228Z,5.53
2017-06-21T15:46:50.456Z,5.37
2017-06-21T15:49:18.817Z,5.30
2017-06-21T15:51:47.050Z,5.20
2017-06-21T15:54:16.070Z,5.27
2017-06-21T15:56:44.308Z,5.07
2017-06-21T15:59:13.369Z,5.00
2017-06-21T16:01:41.665Z,5.50
2017-06-21T16:04:10.135Z,4.97
2017-06-21T16:06:38.345Z,5.23
2017-06-21T16:09:06.597Z,5.30
2017-06-21T16:11:35.025Z,4.60
2017-06-21T16:14:03.253Z,5.77
2017-06-21T16:16:32.305Z,5.20
2017-06-21T16:19:00.594Z,4.60
2017-06-21T16:21:28.840Z,5.47
2017-06-21T16:23:57.137Z,6.27
2017-06-21T16:26:25.394Z,4.70
2017-06-21T16:28:53.642Z,4.90
2017-06-21T16:31:22.656Z,5.50
2017-06-21T16:33:50.969Z,5.07
2017-06-21T16:36:19.241Z,4.90
2017-06-21T16:38:47.467Z,4.73
2017-06-21T16:41:15.713Z,5.57
2017-06-21T16:43:44.037Z,5.70
2017-06-21T16:46:12.296Z,5.40
2017-06-21T16:48:40.614Z,4.90
2017-06-21T16:51:09.027Z,5.23
2017-06-21T16:53:37.297Z,5.40
2017-06-21T16:56:05.546Z,4.73
2017-06-21T16:58:33.849Z,5.70
2017-06-21T17:01:02.115Z,5.93
2017-06-21T17:03:30.452Z,5.40
2017-06-21T17:05:58.729Z,5.50
2017-06-21T17:08:26.971Z,22.73
2017-06-21T17:10:55.252Z,25.77
2017-06-21T17:13:23.524Z,35.83
2017-06-21T17:15:51.853Z,13.97
2017-06-21T17:18:20.120Z,9.13
2017-06-21T17:20:48.376Z,5.37
2017-06-21T17:23:16.633Z,5.90
2017-06-21T17:25:44.924Z,6.73
2017-06-21T17:28:13.182Z,6.37
2017-06-21T17:30:41.419Z,5.50
2017-06-21T17:33:09.689Z,5.80
2017-06-21T17:35:38.038Z,5.93
2017-06-21T17:38:06.307Z,6.87
2017-06-21T17:40:34.629Z,6.10
2017-06-21T17:43:02.971Z,6.20
2017-06-21T17:45:31.218Z,6.07
2017-06-21T17:47:59.523Z,5.53
2017-06-21T17:50:27.761Z,5.33
2017-06-21T17:52:56.070Z,5.70
2017-06-21T17:55:24.307Z,5.80
2017-06-21T17:57:52.583Z,6.97
2017-06-21T18:00:21.564Z,5.80
2017-06-21T18:02:50.586Z,5.60
2017-06-21T18:05:18.893Z,5.90
2017-06-21T18:07:47.186Z,4.97
2017-06-21T18:10:15.424Z,5.73
2017-06-21T18:12:43.696Z,6.43
2017-06-21T18:15:12.023Z,6.13
2017-06-21T18:17:40.263Z,6.13
2017-06-21T18:20:08.622Z,6.10
2017-06-21T18:22:36.856Z,6.40
2017-06-21T18:25:05.884Z,5.70
2017-06-21T18:27:34.165Z,6.43
2017-06-21T18:30:02.417Z,5.90
2017-06-21T18:32:30.656Z,5.93
2017-06-21T18:34:58.902Z,6.23
2017-06-21T18:37:27.144Z,6.27
2017-06-21T18:39:56.157Z,6.70
2017-06-21T18:42:24.394Z,5.90
2017-06-21T18:44:53.420Z,6.60
2017-06-21T18:47:21.719Z,6.83
2017-06-21T18:49:49.964Z,6.30
2017-06-21T18:52:19.123Z,5.97
2017-06-21T18:54:47.356Z,7.10
2017-06-21T18:57:15.709Z,6.40
2017-06-21T18:59:44.002Z,5.80
2017-06-21T19:02:12.238Z,6.50
2017-06-21T19:04:41.269Z,6.60
2017-06-21T19:07:09.494Z,7.03
2017-06-21T19:09:38.522Z,6.93
2017-06-21T19:12:07.375Z,6.73
2017-06-21T19:14:36.412Z,5.97
2017-06-21T19:17:04.637Z,6.70
2017-06-21T19:19:32.884Z,6.80
2017-06-21T19:22:01.133Z,6.80
2017-06-21T19:24:29.421Z,6.37
2017-06-21T19:26:57.681Z,7.70
2017-06-21T19:29:26.032Z,7.00
2017-06-21T19:31:55.055Z,7.30
2017-06-21T19:34:23.299Z,7.30
2017-06-21T19:36:52.560Z,7.80
2017-06-21T19:39:20.793Z,6.50
2017-06-21T19:41:49.064Z,6.60
2017-06-21T19:44:17.462Z,7.57
2017-06-21T19:46:45.760Z,6.80
2017-06-21T19:49:13.997Z,6.50
2017-06-21T19:51:42.347Z,7.17
2017-06-21T19:54:10.663Z,6.10
2017-06-21T19:56:38.901Z,7.43
2017-06-21T19:59:07.942Z,7.27
2017-06-21T20:01:36.472Z,7.60
2017-06-21T20:04:04.709Z,8.10
2017-06-21T20:06:32.990Z,7.33
2017-06-21T20:09:01.242Z,7.80
2017-06-21T20:11:29.722Z,7.43
2017-06-21T20:13:57.988Z,7.60
2017-06-21T20:16:26.222Z,7.73
2017-06-21T20:18:54.856Z,7.67
2017-06-21T20:21:23.089Z,7.93
2017-06-21T20:23:52.117Z,7.60
2017-06-21T20:26:20.370Z,7.30
2017-06-21T20:28:49.385Z,7.77
2017-06-21T20:31:17.633Z,7.37
2017-06-21T20:33:46.652Z,6.97
2017-06-21T20:36:14.908Z,7.73
2017-06-21T20:38:43.142Z,7.50
2017-06-21T20:41:11.888Z,8.13
2017-06-21T20:43:40.782Z,7.20
2017-06-21T20:46:09.041Z,6.83
2017-06-21T20:48:37.287Z,7.70
2017-06-21T20:51:05.541Z,7.47
2017-06-21T20:53:33.795Z,7.20
2017-06-21T20:56:02.042Z,7.73
2017-06-21T20:58:30.283Z,8.60
2017-06-21T21:00:58.587Z,7.57
2017-06-21T21:03:26.834Z,8.20
2017-06-21T21:05:55.097Z,9.03
2017-06-21T21:08:23.433Z,7.23
2017-06-21T21:10:51.718Z,7.90
2017-06-21T21:13:19.957Z,7.80
2017-06-21T21:15:48.269Z,7.60
2017-06-21T21:18:16.501Z,6.77
2017-06-21T21:20:45.542Z,7.57
2017-06-21T21:23:13.789Z,7.80
2017-06-21T21:25:42.049Z,7.50
2017-06-21T21:28:10.368Z,7.27
2017-06-21T21:30:38.637Z,7.80
2017-06-21T21:33:07.008Z,7.80
2017-06-21T21:35:35.249Z,8.10
2017-06-21T21:38:04.381Z,7.40
2017-06-21T21:40:32.617Z,7.53
2017-06-21T21:43:00.946Z,8.00
2017-06-21T21:45:29.189Z,7.20
2017-06-21T21:47:57.437Z,7.53
2017-06-21T21:50:26.436Z,8.33
2017-06-21T21:52:55.578Z,7.63
2017-06-21T21:55:23.805Z,9.07
2017-06-21T21:57:52.856Z,13.83
2017-06-21T22:00:21.118Z,8.87
2017-06-21T22:02:49.357Z,7.43
2017-06-21T22:05:17.592Z,7.23
2017-06-21T22:07:45.935Z,7.30
2017-06-21T22:10:14.905Z,8.00
2017-06-21T22:12:43.923Z,7.73
2017-06-21T22:15:12.197Z,8.17
2017-06-21T22:17:40.485Z,6.93
2017-06-21T22:20:08.745Z,7.20
2017-06-21T22:22:37.020Z,7.70
2017-06-21T22:25:05.253Z,6.70
2017-06-21T22:27:34.285Z,7.47
2017-06-21T22:30:02.538Z,8.03
2017-06-21T22:32:30.842Z,7.30
2017-06-21T22:34:59.089Z,7.70
2017-06-21T22:37:27.339Z,8.47
2017-06-21T22:39:56.360Z,7.93
2017-06-21T22:42:24.600Z,8.00
2017-06-21T22:44:53.029Z,8.67
2017-06-21T22:47:21.265Z,8.27
2017-06-21T22:49:50.403Z,8.20
2017-06-21T22:52:18.678Z,8.70
2017-06-21T22:54:46.935Z,8.80
2017-06-21T22:57:15.285Z,7.93
2017-06-21T22:59:44.307Z,8.73
2017-06-21T23:02:12.768Z,8.10
2017-06-21T23:04:41.091Z,8.77
2017-06-21T23:07:09.358Z,8.47
2017-06-21T23:09:37.627Z,8.33
2017-06-21T23:12:05.922Z,8.53
2017-06-21T23:14:34.286Z,8.40
2017-06-21T23:17:02.527Z,8.27
2017-06-21T23:19:31.592Z,8.23
2017-06-21T23:21:59.880Z,8.50
2017-06-21T23:24:28.897Z,7.40
2017-06-21T23:26:57.140Z,8.63
2017-06-21T23:29:25.400Z,8.80
2017-06-21T23:31:53.748Z,9.20
2017-06-21T23:34:21.985Z,7.53
2017-06-21T23:36:51.099Z,8.30
2017-06-21T23:39:19.369Z,9.00
2017-06-21T23:41:47.633Z,8.33
2017-06-21T23:44:15.908Z,9.27
2017-06-21T23:46:44.172Z,9.23
2017-06-21T23:49:13.224Z,8.40
2017-06-21T23:51:41.585Z,9.20
2017-06-21T23:54:09.866Z,8.90
2017-06-21T23:56:38.145Z,7.70
2017-06-21T23:59:06.381Z,8.40
